Time;durP1;ratioP1;P1;durP2;ratioP2;P2;SDS_P1;SDS_P2;PMS_P1;PMS_P2;Temp;Humidity;BMP_temperature;BMP_pressure;BME280_temperature;BME280_humidity;BME280_pressure;Samples;Min_cycle;Max_cycle;Signal;HPM_P1;HPM_P2
2023/07/11 00:00:00;;;;;;;5.32;2.20;;;;;;;17.13;92.61;101246.47;6031910;28;20347;-67
2023/07/11 00:02:55;;;;;;;3.83;1.88;;;;;;;17.14;93.47;101253.50;6028888;28;20568;-67
2023/07/11 00:06:05;;;;;;;5.70;2.27;;;;;;;16.89;94.12;101251.09;6028342;28;20524;-67
2023/07/11 00:09:00;;;;;;;6.45;1.92;;;;;;;16.69;95.97;101252.53;6028982;28;20018;-67
2023/07/11 00:11:55;;;;;;;5.03;1.97;;;;;;;16.62;95.91;101257.72;6028723;28;20049;-67
2023/07/11 00:14:51;;;;;;;4.17;2.13;;;;;;;16.40;97.60;101259.25;6027648;28;20026;-67
2023/07/11 00:17:47;;;;;;;5.70;2.40;;;;;;;16.34;98.41;101243.84;6037062;28;20038;-67
2023/07/11 00:20:42;;;;;;;5.13;2.80;;;;;;;16.19;98.94;101240.22;6029017;28;20458;-67
2023/07/11 00:23:39;;;;;;;6.40;2.20;;;;;;;16.52;97.99;101252.50;6027638;28;20053;-67
2023/07/11 00:26:35;;;;;;;4.40;2.10;;;;;;;16.51;96.48;101248.19;6028895;28;20116;-67
2023/07/11 00:29:30;;;;;;;5.77;1.90;;;;;;;16.54;97.53;101257.75;6028678;28;20026;-67
2023/07/11 00:32:26;;;;;;;5.80;1.95;;;;;;;16.40;98.04;101235.16;6029172;28;20033;-67
2023/07/11 00:35:21;;;;;;;6.70;2.27;;;;;;;16.53;97.20;101254.22;6034084;28;20026;-67
2023/07/11 00:38:16;;;;;;;6.20;2.50;;;;;;;16.03;98.80;101227.66;6042126;28;20064;-67
2023/07/11 00:41:12;;;;;;;7.82;2.47;;;;;;;16.28;100.00;101247.19;6032605;28;20461;-68
2023/07/11 00:44:15;;;;;;;5.70;2.60;;;;;;;16.22;99.27;101257.78;6031700;28;20042;-67
2023/07/11 00:47:11;;;;;;;8.30;2.97;;;;;;;15.96;100.00;101233.88;6044014;28;20747;-67
2023/07/11 00:50:08;;;;;;;5.57;2.33;;;;;;;15.92;100.00;101245.91;6028828;28;20042;-67
2023/07/11 00:53:03;;;;;;;3.90;2.15;;;;;;;15.90;100.00;101227.34;6027856;28;20030;-67
2023/07/11 00:56:01;;;;;;;5.83;2.17;;;;;;;16.26;100.00;101241.19;6029420;28;20092;-67
2023/07/11 00:58:57;;;;;;;6.13;2.33;;;;;;;16.47;98.58;101224.59;6035888;28;20074;-67
2023/07/11 01:02:01;;;;;;;7.07;2.50;;;;;;;16.59;98.07;101218.72;6032042;28;20076;-67
2023/07/11 01:04:56;;;;;;;4.53;2.10;;;;;;;16.97;96.92;101229.63;6026017;28;20034;-68
2023/07/11 01:07:51;;;;;;;7.40;2.87;;;;;;;17.24;96.99;101205.00;6027744;28;20041;-67
2023/07/11 01:10:47;;;;;;;3.70;2.40;;;;;;;17.50;94.70;101218.09;6032692;28;20038;-67
2023/07/11 01:13:42;;;;;;;6.05;2.17;;;;;;;17.53;94.60;101198.97;6040364;28;20273;-67
2023/07/11 01:16:44;;;;;;;5.35;2.50;;;;;;;17.69;94.07;101215.78;6027520;28;20045;-68
2023/07/11 01:19:39;;;;;;;3.50;1.88;;;;;;;17.50;93.47;101202.81;6027602;28;20109;-67
2023/07/11 01:22:36;;;;;;;5.43;2.30;;;;;;;17.51;94.38;101207.16;6033262;28;20034;-68
2023/07/11 01:25:32;;;;;;;7.63;2.30;;;;;;;17.28;94.10;101198.31;6038379;28;20116;-68
2023/07/11 01:28:27;;;;;;;5.67;2.27;;;;;;;17.10;93.39;101187.00;6029964;28;20041;-68
2023/07/11 01:31:23;;;;;;;6.28;2.47;;;;;;;16.94;93.33;101187.94;6027387;28;20038;-68
2023/07/11 01:34:18;;;;;;;5.77;2.23;;;;;;;16.69;95.00;101207.00;6032311;28;20488;-68
2023/07/11 01:37:13;;;;;;;6.13;2.40;;;;;;;16.52;95.63;101198.94;6026993;28;20044;-68
2023/07/11 01:40:09;;;;;;;6.03;2.67;;;;;;;16.35;97.56;101189.31;6027142;28;20031;-67
2023/07/11 01:43:04;;;;;;;8.70;2.80;;;;;;;16.17;98.30;101188.69;6026396;28;20025;-67
2023/07/11 01:45:59;;;;;;;6.50;2.80;;;;;;;16.01;100.00;101178.00;6027446;28;20022;-68
2023/07/11 01:48:55;;;;;;;4.50;2.57;;;;;;;15.93;100.00;101176.19;6036829;28;20041;-68
2023/07/11 01:52:03;;;;;;;5.40;2.77;;;;;;;15.66;100.00;101171.19;6026583;28;20413;-68
2023/07/11 01:54:58;;;;;;;8.73;3.20;;;;;;;15.66;100.00;101192.59;6026114;28;20038;-68
2023/07/11 01:57:53;;;;;;;7.53;3.10;;;;;;;15.58;100.00;101175.69;6026595;28;20466;-68
2023/07/11 02:00:49;;;;;;;5.83;2.90;;;;;;;15.70;100.00;101187.75;6026791;28;20289;-68
2023/07/11 02:03:44;;;;;;;5.82;2.78;;;;;;;15.58;100.00;101171.19;6025707;28;20341;-69
2023/07/11 02:06:39;;;;;;;6.03;2.60;;;;;;;15.69;100.00;101188.75;6036401;28;20034;-68
2023/07/11 02:09:35;;;;;;;7.53;3.00;;;;;;;15.67;100.00;101185.41;6026300;28;20037;-68
2023/07/11 02:12:30;;;;;;;5.07;2.65;;;;;;;15.53;100.00;101183.38;6026174;28;20478;-68
2023/07/11 02:15:25;;;;;;;6.53;3.17;;;;;;;15.51;100.00;101183.56;6026096;28;20034;-68
2023/07/11 02:18:21;;;;;;;5.43;3.03;;;;;;;15.37;100.00;101179.69;6026312;28;20049;-68
2023/07/11 02:21:16;;;;;;;8.37;2.63;;;;;;;15.46;100.00;101177.88;6026167;28;20386;-68
2023/07/11 02:24:13;;;;;;;6.80;2.87;;;;;;;15.49;100.00;101170.34;6035519;28;20434;-68
2023/07/11 02:27:08;;;;;;;8.13;2.95;;;;;;;15.61;100.00;101180.72;6025559;28;20094;-67
2023/07/11 02:30:04;;;;;;;7.63;2.83;;;;;;;15.52;100.00;101171.03;6026440;28;20497;-67
2023/07/11 02:33:00;;;;;;;5.65;3.25;;;;;;;15.50;100.00;101187.22;6026054;28;21327;-68
2023/07/11 02:35:55;;;;;;;8.23;3.03;;;;;;;15.71;100.00;101192.09;6029659;28;20084;-68
2023/07/11 02:38:50;;;;;;;6.10;3.07;;;;;;;15.51;100.00;101174.72;6025748;28;20382;-68
2023/07/11 02:41:45;;;;;;;7.70;3.07;;;;;;;15.55;100.00;101187.56;6025932;28;20041;-68
2023/07/11 02:44:41;;;;;;;9.67;3.33;;;;;;;15.41;100.00;101174.81;6025150;28;20030;-67
2023/07/11 02:47:36;;;;;;;5.03;2.73;;;;;;;15.39;100.00;101172.31;6027221;28;20288;-67
2023/07/11 02:50:31;;;;;;;7.27;3.30;;;;;;;15.37;100.00;101166.31;6025756;28;20033;-67
2023/07/11 02:53:27;;;;;;;7.90;3.63;;;;;;;15.42;100.00;101166.66;6025595;28;20034;-68
2023/07/11 02:56:22;;;;;;;6.00;3.27;;;;;;;15.46;100.00;101172.53;6025611;28;20459;-67
2023/07/11 02:59:17;;;;;;;7.33;3.13;;;;;;;15.31;100.00;101158.97;6025890;28;20421;-67
2023/07/11 03:02:12;;;;;;;5.70;3.20;;;;;;;15.24;100.00;101163.31;6025685;28;20042;-67
2023/07/11 03:05:08;;;;;;;8.20;3.50;;;;;;;15.18;100.00;101155.94;6024949;28;20042;-67
2023/07/11 03:08:04;;;;;;;8.13;3.75;;;;;;;15.12;100.00;101153.06;6017697;28;20165;-67
2023/07/11 03:11:00;;;;;;;8.40;3.97;;;;;;;15.08;100.00;101157.94;6025205;28;20026;-67
2023/07/11 03:13:55;;;;;;;8.50;3.78;;;;;;;14.94;100.00;101145.22;6025158;28;20057;-67
2023/07/11 03:16:51;;;;;;;11.83;4.20;;;;;;;14.96;100.00;101148.56;6025468;28;20411;-67
2023/07/11 03:19:47;;;;;;;6.75;4.00;;;;;;;14.93;100.00;101145.34;6025560;28;20042;-67
2023/07/11 03:22:42;;;;;;;8.80;3.80;;;;;;;14.91;100.00;101137.53;6025693;28;20529;-68
2023/07/11 03:25:38;;;;;;;11.03;3.47;;;;;;;15.04;100.00;101161.06;6023205;28;20034;-68
2023/07/11 03:28:33;;;;;;;7.07;3.72;;;;;;;15.05;100.00;101155.59;6025604;28;20084;-67
2023/07/11 03:31:28;;;;;;;7.20;3.50;;;;;;;15.16;100.00;101147.25;6024727;28;20060;-67
2023/07/11 03:34:24;;;;;;;8.97;3.43;;;;;;;15.09;100.00;101154.25;6028394;28;20037;-67
2023/07/11 03:37:19;;;;;;;6.47;3.50;;;;;;;15.00;100.00;101143.72;6024988;28;20026;-66
2023/07/11 03:40:14;;;;;;;9.63;3.70;;;;;;;14.90;100.00;101133.16;6024964;28;20454;-67
2023/07/11 03:43:10;;;;;;;12.73;3.90;;;;;;;14.95;100.00;101151.41;6025337;28;20022;-67
2023/07/11 03:46:05;;;;;;;6.67;3.70;;;;;;;14.92;100.00;101149.06;6024173;28;20117;-66
2023/07/11 03:49:01;;;;;;;6.70;3.40;;;;;;;14.92;100.00;101143.72;6028585;28;20018;-66
2023/07/11 03:51:56;;;;;;;10.30;3.65;;;;;;;14.96;100.00;101143.22;6029070;28;20057;-66
2023/07/11 03:54:52;;;;;;;7.37;3.97;;;;;;;14.98;100.00;101143.88;6028361;28;20036;-66
2023/07/11 03:57:47;;;;;;;8.13;3.70;;;;;;;15.02;100.00;101141.72;6029165;28;20370;-67
2023/07/11 04:00:42;;;;;;;8.33;3.53;;;;;;;14.96;100.00;101113.00;6029161;28;20344;-66
2023/07/11 04:03:37;;;;;;;8.77;4.20;;;;;;;15.10;100.00;101123.88;6029409;28;20034;-66
2023/07/11 04:06:33;;;;;;;8.13;3.40;;;;;;;15.21;100.00;101125.38;6031463;28;20492;-67
2023/07/11 04:09:28;;;;;;;6.77;3.40;;;;;;;15.35;100.00;101128.25;6028960;28;20034;-67
2023/07/11 04:12:23;;;;;;;6.97;4.20;;;;;;;15.42;100.00;101123.88;6029113;28;20266;-66
2023/07/11 04:15:19;;;;;;;6.40;3.10;;;;;;;15.49;100.00;101130.25;6029977;28;20037;-67
2023/07/11 04:18:14;;;;;;;6.83;3.10;;;;;;;15.53;100.00;101136.09;6030580;28;20033;-67
2023/07/11 04:21:10;;;;;;;10.50;3.60;;;;;;;15.44;100.00;101116.53;6035100;28;20458;-66
2023/07/11 04:24:05;;;;;;;6.28;2.97;;;;;;;15.58;100.00;101122.22;6029598;28;20166;-66
2023/07/11 04:27:01;;;;;;;7.05;3.58;;;;;;;15.67;100.00;101115.88;6028575;28;20034;-67
2023/07/11 04:29:56;;;;;;;10.60;3.67;;;;;;;16.00;100.00;101123.69;6028404;28;20022;-66
2023/07/11 04:32:51;;;;;;;9.73;3.40;;;;;;;16.03;100.00;101107.28;6028639;28;20026;-66
2023/07/11 04:35:47;;;;;;;9.00;4.07;;;;;;;16.39;100.00;101112.16;6027681;28;20033;-67
2023/07/11 04:38:43;;;;;;;9.33;3.63;;;;;;;16.41;100.00;101111.00;6028437;28;20054;-67
2023/07/11 04:41:38;;;;;;;8.05;3.78;;;;;;;16.68;99.41;101104.38;6028204;28;20360;-67
2023/07/11 04:44:34;;;;;;;8.30;3.08;;;;;;;17.00;97.73;101100.66;6026775;28;20026;-67
2023/07/11 04:47:30;;;;;;;4.57;2.70;;;;;;;17.20;95.48;101094.63;6028253;28;20372;-67
2023/07/11 04:50:25;;;;;;;4.15;2.28;;;;;;;17.08;94.82;101093.38;6027889;28;20297;-66
2023/07/11 04:53:20;;;;;;;7.80;2.60;;;;;;;17.44;94.52;101104.34;6027398;28;20378;-67
2023/07/11 04:56:16;;;;;;;7.90;3.08;;;;;;;17.34;92.60;101090.31;6024440;28;20034;-66
2023/07/11 04:59:11;;;;;;;8.73;2.80;;;;;;;17.56;93.75;101096.69;6026286;28;20076;-66
2023/07/11 05:02:06;;;;;;;8.17;3.00;;;;;;;17.67;91.88;101082.84;6024502;28;20266;-66
2023/07/11 05:05:02;;;;;;;5.95;2.50;;;;;;;17.90;89.45;101104.25;6025128;28;20181;-66
2023/07/11 05:07:57;;;;;;;5.78;2.15;;;;;;;17.70;91.87;101080.63;6031501;28;20030;-66
2023/07/11 05:10:58;;;;;;;7.60;2.67;;;;;;;17.90;90.94;101088.16;6030653;28;20034;-66
2023/07/11 05:13:53;;;;;;;5.30;2.60;;;;;;;17.97;89.31;101094.44;6026694;28;20093;-66
2023/07/11 05:16:48;;;;;;;7.03;2.50;;;;;;;18.12;88.29;101074.66;6027400;28;20042;-66
2023/07/11 05:19:44;;;;;;;7.60;2.72;;;;;;;18.11;90.82;101091.75;6027213;28;20082;-67
2023/07/11 05:22:39;;;;;;;8.23;2.67;;;;;;;18.50;87.83;101077.22;6034267;28;20381;-66
2023/07/11 05:25:36;;;;;;;6.47;2.87;;;;;;;18.27;87.36;101064.72;6028417;28;20285;-66
2023/07/11 05:28:32;;;;;;;6.75;2.33;;;;;;;18.53;88.31;101083.06;6027017;28;20029;-66
2023/07/11 05:31:27;;;;;;;5.57;2.50;;;;;;;18.70;86.29;101083.63;6027392;28;20562;-66
2023/07/11 05:34:23;;;;;;;5.10;2.33;;;;;;;19.31;82.46;101068.75;6027148;28;20053;-67
2023/07/11 05:37:18;;;;;;;7.17;2.23;;;;;;;19.48;82.04;101078.25;6027164;28;20038;-67
2023/07/11 05:40:13;;;;;;;10.33;2.50;;;;;;;19.32;82.45;101067.72;6032662;28;20465;-67
2023/07/11 05:43:09;;;;;;;7.15;2.30;;;;;;;19.65;82.18;101082.28;6031657;28;20027;-66
2023/07/11 05:46:04;;;;;;;10.10;2.63;;;;;;;19.31;81.64;101063.38;6030163;28;20076;-67
2023/07/11 05:48:59;;;;;;;6.30;2.40;;;;;;;19.41;81.69;101053.13;6035478;28;20048;-67
2023/07/11 05:51:54;;;;;;;6.80;2.07;;;;;;;19.71;80.87;101070.75;6026964;28;20347;-66
2023/07/11 05:54:50;;;;;;;6.90;2.07;;;;;;;19.57;80.76;101059.06;6026214;28;20261;-66
2023/07/11 05:57:45;;;;;;;6.63;2.23;;;;;;;19.94;78.40;101063.25;6026525;28;20378;-66
2023/07/11 06:00:41;;;;;;;6.30;2.00;;;;;;;20.95;74.82;101056.19;6026486;28;20029;-67
2023/07/11 06:03:36;;;;;;;5.78;2.05;;;;;;;20.28;75.45;101051.63;6016021;28;20088;-66
2023/07/11 06:06:35;;;;;;;5.67;2.40;;;;;;;20.68;75.61;101052.63;6037126;28;20030;-66
2023/07/11 06:09:30;;;;;;;9.68;2.22;;;;;;;20.61;73.26;101027.50;6026062;28;20069;-66
2023/07/11 06:12:25;;;;;;;7.33;2.20;;;;;;;20.73;73.71;101033.97;6025584;28;20106;-67
2023/07/11 06:15:21;;;;;;;6.60;2.30;;;;;;;20.77;73.12;101027.94;6025520;28;20454;-66
2023/07/11 06:18:16;;;;;;;3.20;1.83;;;;;;;21.18;71.34;101021.56;6026156;28;20037;-67
2023/07/11 06:21:11;;;;;;;6.97;2.20;;;;;;;21.48;70.35;101027.38;6027175;28;20049;-67
2023/07/11 06:24:07;;;;;;;6.43;2.00;;;;;;;21.26;70.39;101014.09;6025232;28;20030;-67
2023/07/11 06:27:03;;;;;;;9.27;2.13;;;;;;;21.35;71.08;101020.97;6026302;28;20089;-66
2023/07/11 06:29:58;;;;;;;7.75;2.30;;;;;;;21.40;70.81;101009.53;6025883;28;20269;-66
2023/07/11 06:32:53;;;;;;;4.63;2.00;;;;;;;21.48;70.61;101003.09;6025648;28;20484;-67
2023/07/11 06:35:49;;;;;;;5.03;1.97;;;;;;;22.06;69.49;100999.44;6025562;28;20477;-66
2023/07/11 06:38:45;;;;;;;4.97;1.88;;;;;;;22.46;67.14;101006.31;6025265;28;20061;-67
2023/07/11 06:41:40;;;;;;;4.83;2.30;;;;;;;22.52;65.95;100994.63;6025786;28;20030;-67
2023/07/11 06:44:35;;;;;;;6.33;2.20;;;;;;;22.29;67.49;100999.72;6024943;28;20489;-66
2023/07/11 06:47:31;;;;;;;6.23;2.13;;;;;;;22.77;65.11;101004.69;6025682;28;20153;-66
2023/07/11 06:50:27;;;;;;;5.82;2.08;;;;;;;22.17;67.06;100996.06;6025864;28;20262;-66
2023/07/11 06:53:25;;;;;;;6.10;2.33;;;;;;;22.06;67.33;100991.34;6029972;28;20035;-66
2023/07/11 06:56:22;;;;;;;7.55;2.00;;;;;;;22.83;65.84;100983.00;6027316;28;20034;-66
2023/07/11 06:59:21;;;;;;;8.93;2.00;;;;;;;22.77;64.36;100983.06;6025713;28;20039;-66
2023/07/11 07:02:16;;;;;;;7.65;2.10;;;;;;;23.09;62.51;100990.94;6025347;28;20097;-67
2023/07/11 07:05:11;;;;;;;7.83;2.07;;;;;;;23.31;61.88;100980.53;6024962;28;20030;-66
2023/07/11 07:08:07;;;;;;;5.50;2.00;;;;;;;23.80;60.71;100986.94;6025173;28;20038;-66
2023/07/11 07:11:02;;;;;;;8.35;2.03;;;;;;;23.85;59.91;100978.94;6028899;28;20042;-67
2023/07/11 07:13:58;;;;;;;6.32;2.00;;;;;;;24.51;57.47;100979.78;6024572;28;20030;-66
2023/07/11 07:16:53;;;;;;;6.53;2.00;;;;;;;24.66;55.72;100988.31;6024547;28;20057;-66
2023/07/11 07:19:48;;;;;;;4.93;2.30;;;;;;;24.77;55.02;100984.81;6025188;28;20043;-67
2023/07/11 07:22:44;;;;;;;4.27;1.97;;;;;;;24.95;55.70;100974.97;6024810;28;20034;-67
2023/07/11 07:25:39;;;;;;;4.57;2.40;;;;;;;24.63;54.47;100972.50;6028511;28;20056;-66
2023/07/11 07:28:35;;;;;;;7.63;4.05;;;;;;;24.94;54.31;100962.44;6029670;28;20548;-67
2023/07/11 07:31:30;;;;;;;9.27;3.70;;;;;;;24.75;55.75;100962.50;6038539;28;20077;-66
2023/07/11 07:34:25;;;;;;;9.20;3.03;;;;;;;24.69;55.11;100965.31;6028794;28;20276;-67
2023/07/11 07:37:21;;;;;;;7.13;2.43;;;;;;;24.56;55.36;100954.66;6029349;28;20088;-67
2023/07/11 07:40:17;;;;;;;7.53;2.97;;;;;;;24.75;56.31;100951.66;6029160;28;20274;-66
2023/07/11 07:43:12;;;;;;;7.28;2.45;;;;;;;24.77;55.90;100949.53;6028840;28;20280;-66
2023/07/11 07:46:07;;;;;;;6.47;2.10;;;;;;;25.34;54.39;100930.81;6029826;28;20416;-67
2023/07/11 07:49:02;;;;;;;4.10;1.70;;;;;;;25.23;52.89;100934.38;6034236;28;20026;-66
2023/07/11 07:51:58;;;;;;;6.03;2.07;;;;;;;24.95;54.78;100955.97;6029690;28;20034;-67
2023/07/11 07:54:53;;;;;;;6.97;2.07;;;;;;;25.45;53.65;100927.28;6033566;28;20034;-66
2023/07/11 07:57:48;;;;;;;7.07;2.13;;;;;;;25.60;52.88;100935.78;6031901;28;20466;-67
2023/07/11 08:00:44;;;;;;;6.83;2.20;;;;;;;25.60;53.05;100938.47;6036155;28;20054;-66
2023/07/11 08:03:39;;;;;;;5.57;2.07;;;;;;;25.71;51.73;100924.06;6041822;28;20058;-67
2023/07/11 08:06:35;;;;;;;4.90;2.30;;;;;;;25.18;52.91;100921.50;6037079;28;20026;-67
2023/07/11 08:09:30;;;;;;;6.25;2.28;;;;;;;25.74;52.96;100929.00;6029174;28;20048;-67
2023/07/11 08:12:26;;;;;;;5.77;2.40;;;;;;;25.95;51.81;100912.03;6029000;28;20036;-67
2023/07/11 08:15:21;;;;;;;4.93;2.27;;;;;;;26.28;51.02;100911.34;6028555;28;20030;-66
2023/07/11 08:18:16;;;;;;;5.13;2.03;;;;;;;26.27;49.89;100915.16;6029288;28;20450;-67
2023/07/11 08:21:12;;;;;;;7.33;2.80;;;;;;;25.96;50.15;100904.72;6038441;28;20137;-66
2023/07/11 08:24:08;;;;;;;5.65;2.33;;;;;;;25.97;50.09;100890.91;6028175;28;20675;-67
2023/07/11 08:27:04;;;;;;;6.65;2.58;;;;;;;26.35;49.28;100876.66;6028713;28;20541;-66
2023/07/11 08:29:59;;;;;;;7.03;2.63;;;;;;;25.77;50.71;100890.50;6028792;28;20029;-67
2023/07/11 08:32:54;;;;;;;5.18;1.90;;;;;;;26.18;51.26;100881.25;6028732;28;20030;-67
2023/07/11 08:35:54;;;;;;;6.93;2.57;;;;;;;26.01;51.15;100869.47;6038633;28;20030;-67
2023/07/11 08:38:49;;;;;;;9.13;2.20;;;;;;;26.34;51.29;100874.19;6028904;28;20018;-66
2023/07/11 08:41:50;;;;;;;5.30;2.10;;;;;;;27.11;49.31;100873.28;6028295;28;20168;-67
2023/07/11 08:44:50;;;;;;;5.72;2.30;;;;;;;26.39;49.60;100875.09;6039412;28;20018;-66
2023/07/11 08:48:04;;;;;;;4.20;2.38;;;;;;;26.38;49.53;100888.94;6028249;28;20141;-67
2023/07/11 08:51:06;;;;;;;5.95;2.60;;;;;;;26.78;48.59;100873.31;6030206;28;20048;-67
2023/07/11 08:54:20;;;;;;;7.38;2.33;;;;;;;26.70;49.43;100857.38;6027898;28;20405;-69
2023/07/11 08:57:16;;;;;;;7.22;2.33;;;;;;;27.00;48.77;100870.66;6026730;28;20041;-66
2023/07/11 09:00:17;;;;;;;5.43;2.13;;;;;;;26.65;48.08;100864.63;6026968;28;20038;-67
2023/07/11 09:03:41;;;;;;;4.70;2.70;;;;;;;26.39;48.63;100857.97;6028165;28;20053;-68
2023/07/11 09:06:43;;;;;;;5.82;2.17;;;;;;;26.80;48.84;100857.56;6028226;28;20030;-66
2023/07/11 09:09:41;;;;;;;5.15;2.50;;;;;;;26.92;48.44;100847.41;6026659;28;20046;-67
2023/07/11 09:12:44;;;;;;;3.63;2.03;;;;;;;27.28;48.33;100845.19;6026823;28;20042;-66
2023/07/11 09:15:50;;;;;;;6.63;2.25;;;;;;;27.46;47.87;100831.28;6021564;28;20030;-66
2023/07/11 09:19:07;;;;;;;4.47;2.55;;;;;;;27.55;47.11;100835.22;6027159;28;20026;-66
2023/07/11 09:22:15;;;;;;;5.15;2.22;;;;;;;27.14;47.00;100837.38;6026961;28;20108;-66
2023/07/11 09:25:34;;;;;;;6.18;2.50;;;;;;;27.42;47.77;100836.41;6025364;28;20018;-67
2023/07/11 09:28:32;;;;;;;5.15;2.50;;;;;;;27.41;47.58;100833.94;6027803;28;20544;-67
2023/07/11 09:31:37;;;;;;;8.50;2.78;;;;;;;27.85;46.52;100830.09;6030254;28;20427;-67
2023/07/11 09:34:36;;;;;;;5.45;2.47;;;;;;;28.16;45.86;100821.16;6041259;28;20109;-67
2023/07/11 09:37:35;;;;;;;3.78;2.10;;;;;;;27.92;44.71;100818.97;6025467;28;20038;-67
2023/07/11 09:40:48;;;;;;;;;;;;;;;27.62;44.60;100820.28;6025465;28;20030;-67
2023/07/11 09:43:43;;;;;;;3.63;2.10;;;;;;;27.89;45.13;100798.50;6044980;28;20395;-68
2023/07/11 09:46:38;;;;;;;4.43;2.10;;;;;;;27.92;44.38;100806.16;6026806;28;20035;-66
2023/07/11 09:49:35;;;;;;;5.82;2.35;;;;;;;28.51;44.88;100811.63;6025683;28;20181;-67
2023/07/11 09:52:30;;;;;;;4.63;2.20;;;;;;;28.17;44.57;100800.97;6024171;28;20045;-67
2023/07/11 09:55:34;;;;;;;11.23;2.87;;;;;;;28.07;44.36;100800.91;6037386;28;20025;-67
2023/07/11 09:58:33;;;;;;;5.47;2.40;;;;;;;28.24;44.19;100798.84;6026393;28;20033;-67
2023/07/11 10:01:33;;;;;;;6.07;2.30;;;;;;;29.02;43.56;100790.94;6025580;28;20033;-67
2023/07/11 10:04:29;;;;;;;4.85;2.33;;;;;;;28.47;43.62;100777.75;6025565;28;20068;-67
2023/07/11 10:07:29;;;;;;;5.70;2.70;;;;;;;28.64;43.38;100778.44;6025446;28;20040;-67
2023/07/11 10:10:25;;;;;;;4.75;2.50;;;;;;;28.58;43.06;100774.81;6024109;28;20120;-67
2023/07/11 10:13:21;;;;;;;7.77;2.43;;;;;;;28.49;42.74;100765.47;6026534;28;20034;-67
2023/07/11 10:16:20;;;;;;;4.53;2.28;;;;;;;28.71;43.70;100763.47;6026022;28;20117;-68
2023/07/11 10:19:16;;;;;;;6.95;2.65;;;;;;;29.14;42.28;100756.84;6025930;28;20030;-67
2023/07/11 10:22:17;;;;;;;5.65;2.10;;;;;;;29.94;40.53;100760.94;6030879;28;20049;-67
2023/07/11 10:25:20;;;;;;;6.30;2.30;;;;;;;29.91;40.72;100761.47;6028448;28;20026;-67
2023/07/11 10:28:26;;;;;;;6.80;2.70;;;;;;;29.00;41.40;100736.56;6029904;28;20109;-67
2023/07/11 10:31:27;;;;;;;4.43;2.45;;;;;;;29.49;39.49;100729.66;6028635;28;20081;-68
2023/07/11 10:34:40;;;;;;;4.80;2.50;;;;;;;29.65;39.33;100746.09;6034447;28;20414;-67
2023/07/11 10:37:39;;;;;;;5.32;2.20;;;;;;;29.78;38.00;100727.25;6029816;28;20045;-66
2023/07/11 10:40:38;;;;;;;4.43;2.33;;;;;;;29.96;38.30;100728.66;6032974;28;20049;-67
2023/07/11 10:43:35;;;;;;;5.65;2.65;;;;;;;29.57;38.61;100738.44;6025075;28;20045;-67
2023/07/11 10:46:41;;;;;;;7.85;2.65;;;;;;;29.79;37.71;100725.31;6026804;28;20031;-67
2023/07/11 10:49:44;;;;;;;5.88;2.72;;;;;;;29.62;38.10;100709.19;6027598;28;20108;-67
2023/07/11 10:52:41;;;;;;;5.72;3.00;;;;;;;29.89;38.65;100708.97;6030910;28;20436;-67
2023/07/11 10:55:44;;;;;;;5.22;2.63;;;;;;;29.77;38.96;100713.84;6046699;28;20489;-67
2023/07/11 10:58:39;;;;;;;6.07;3.17;;;;;;;29.89;39.10;100709.78;6031595;28;20030;-67
2023/07/11 11:01:50;;;;;;;7.90;2.83;;;;;;;30.00;38.14;100713.34;6035913;28;20381;-67
2023/07/11 11:05:17;;;;;;;5.50;2.88;;;;;;;29.76;38.60;100704.00;6032004;28;20301;-67
2023/07/11 11:08:21;;;;;;;5.65;2.83;;;;;;;30.53;37.23;100692.75;6030356;28;20037;-68
2023/07/11 11:11:56;;;;;;;7.38;3.20;;;;;;;29.76;38.23;100682.94;6040614;28;20022;-67
2023/07/11 11:14:54;;;;;;;6.28;2.80;;;;;;;30.01;36.65;100676.66;6032049;28;20062;-67
2023/07/11 11:18:17;;;;;;;5.18;2.72;;;;;;;30.45;36.32;100690.56;6041653;28;20030;-68
2023/07/11 11:21:24;;;;;;;5.38;3.00;;;;;;;30.38;37.23;100673.63;6028940;28;20022;-68
2023/07/11 11:24:31;;;;;;;5.90;3.00;;;;;;;29.93;38.50;100669.00;6022453;28;20097;-67
2023/07/11 11:27:45;;;;;;;6.75;3.15;;;;;;;30.26;37.83;100670.34;6032159;28;20049;-67
2023/07/11 11:30:51;;;;;;;5.35;3.55;;;;;;;29.51;40.18;100663.78;6030293;28;20889;-67
2023/07/11 11:34:03;;;;;;;5.15;2.80;;;;;;;30.08;39.53;100653.41;6029290;28;20073;-68
2023/07/11 11:37:09;;;;;;;9.00;3.33;;;;;;;30.27;38.01;100644.63;6043848;28;20032;-66
2023/07/11 11:40:11;;;;;;;5.63;2.85;;;;;;;29.95;39.75;100634.81;6030655;28;20054;-67
2023/07/11 11:43:12;;;;;;;5.43;2.92;;;;;;;30.14;38.98;100650.66;6027508;28;20037;-67
2023/07/11 11:46:08;;;;;;;6.03;3.17;;;;;;;30.37;39.31;100639.97;6035287;28;20030;-67
2023/07/11 11:49:07;;;;;;;6.75;3.58;;;;;;;30.85;36.95;100640.34;6028732;28;20038;-67
2023/07/11 11:52:05;;;;;;;6.30;3.50;;;;;;;30.50;37.93;100628.41;6038878;28;20457;-67
2023/07/11 11:55:00;;;;;;;6.57;3.08;;;;;;;30.40;38.78;100641.31;6035039;28;20030;-67
2023/07/11 11:57:56;;;;;;;7.75;3.60;;;;;;;30.35;38.25;100631.19;6030733;28;20053;-68
2023/07/11 12:00:54;;;;;;;6.17;3.47;;;;;;;30.82;37.20;100633.47;6030646;28;20031;-67
2023/07/11 12:03:50;;;;;;;5.90;3.53;;;;;;;30.87;37.01;100613.47;6027169;28;20284;-67
2023/07/11 12:06:45;;;;;;;6.30;3.70;;;;;;;30.70;38.40;100637.66;6033968;28;20026;-68
2023/07/11 12:09:52;;;;;;;7.43;3.67;;;;;;;31.14;38.01;100635.81;6030312;28;20037;-67
2023/07/11 12:12:54;;;;;;;6.70;3.92;;;;;;;30.85;37.82;100610.19;6036954;28;20373;-68
2023/07/11 12:15:52;;;;;;;5.50;3.70;;;;;;;30.64;38.38;100618.50;6026037;28;20042;-68
2023/07/11 12:18:56;;;;;;;8.63;4.53;;;;;;;29.85;39.44;100609.38;6038233;28;20482;-68
2023/07/11 12:21:57;;;;;;;6.40;3.75;;;;;;;29.95;39.70;100604.72;6024199;28;20034;-68
2023/07/11 12:25:03;;;;;;;9.80;4.05;;;;;;;30.48;39.07;100600.50;6030143;28;20038;-67
2023/07/11 12:28:02;;;;;;;;;;;;;;;30.97;38.59;100597.00;6021132;28;20485;-68
2023/07/11 12:31:22;;;;;;;5.70;3.30;;;;;;;30.76;38.49;100588.06;6030974;28;19910;-68
2023/07/11 12:34:17;;;;;;;6.28;3.67;;;;;;;29.89;40.72;100577.66;6039382;28;20044;-68
2023/07/11 12:37:13;;;;;;;9.38;3.92;;;;;;;30.26;39.88;100583.59;6030403;28;20038;-68
2023/07/11 12:40:17;;;;;;;7.13;4.03;;;;;;;30.26;40.10;100575.38;6029907;28;20042;-68
2023/07/11 12:43:22;;;;;;;6.68;4.22;;;;;;;30.60;40.08;100576.34;6040724;28;20031;-68
2023/07/11 12:46:23;;;;;;;6.82;4.03;;;;;;;31.26;39.08;100575.94;6030725;28;20029;-68
2023/07/11 12:49:26;;;;;;;7.45;4.20;;;;;;;31.18;38.43;100562.84;6033785;28;20558;-68
2023/07/11 12:52:24;;;;;;;7.65;3.75;;;;;;;31.29;38.71;100569.91;6026418;28;20469;-68
2023/07/11 12:55:19;;;;;;;8.63;4.50;;;;;;;31.04;37.99;100568.16;6027126;28;20049;-67
2023/07/11 12:58:20;;;;;;;6.73;4.47;;;;;;;31.43;37.55;100554.44;6030291;28;20026;-68
2023/07/11 13:01:16;;;;;;;6.75;4.30;;;;;;;31.40;38.74;100571.47;6028629;28;20108;-68
2023/07/11 13:04:21;;;;;;;5.82;4.18;;;;;;;31.49;38.02;100547.00;6026635;28;20026;-67
2023/07/11 13:07:20;;;;;;;6.80;4.30;;;;;;;32.38;37.93;100532.59;6028903;28;20028;-67
2023/07/11 13:10:26;;;;;;;8.65;4.80;;;;;;;31.92;37.12;100539.72;6023788;28;20040;-67
2023/07/11 13:13:21;;;;;;;;;;;;;;;31.98;37.21;100533.88;6024815;28;20030;-67
2023/07/11 13:16:20;;;;;;;7.10;4.37;;;;;;;32.25;37.30;100538.81;6051195;28;19916;-68
2023/07/11 13:19:20;;;;;;;11.30;4.57;;;;;;;32.54;36.73;100512.06;6028876;28;20466;-68
2023/07/11 13:22:18;;;;;;;7.00;4.53;;;;;;;33.16;35.63;100512.81;6026399;28;20058;-67
2023/07/11 13:25:16;;;;;;;8.60;4.30;;;;;;;32.34;35.34;100521.38;6028820;28;20034;-68
2023/07/11 13:28:20;;;;;;;7.50;4.13;;;;;;;31.54;37.32;100525.84;6018225;28;20036;-67
2023/07/11 13:31:25;;;;;;;7.90;4.40;;;;;;;31.68;38.01;100502.13;6023664;28;20038;-68
2023/07/11 13:34:27;;;;;;;5.97;4.28;;;;;;;32.31;37.33;100497.28;6032257;28;20026;-68
2023/07/11 13:37:29;;;;;;;8.02;4.30;;;;;;;33.20;35.38;100516.59;6024396;28;20370;-68
2023/07/11 13:40:43;;;;;;;9.15;5.03;;;;;;;32.56;35.62;100509.84;6025131;28;20530;-67
2023/07/11 13:43:38;;;;;;;7.90;5.03;;;;;;;32.91;34.26;100492.81;6024176;28;20053;-67
2023/07/11 13:46:34;;;;;;;9.00;4.85;;;;;;;32.50;35.41;100508.28;6023705;28;20034;-68